createdAt,value
2023-01-17T00:00:01.167Z,0
2023-01-17T00:05:01.228Z,0
2023-01-17T00:10:01.804Z,0
2023-01-17T00:15:01.197Z,0
2023-01-17T00:20:01.169Z,0
2023-01-17T00:25:01.540Z,0
2023-01-17T00:30:03.854Z,0
2023-01-17T00:35:01.157Z,0
2023-01-17T00:40:01.213Z,0
2023-01-17T00:45:01.169Z,0
2023-01-17T00:50:01.232Z,0
2023-01-17T00:55:01.273Z,0
2023-01-17T01:00:01.198Z,0
2023-01-17T01:05:01.189Z,0
2023-01-17T01:10:01.806Z,0
2023-01-17T01:15:01.212Z,0
2023-01-17T01:20:01.704Z,0
2023-01-17T01:25:07.175Z,0
2023-01-17T01:30:01.230Z,0
2023-01-17T01:35:01.199Z,0
2023-01-17T01:40:03.588Z,0
2023-01-17T01:45:01.185Z,0
2023-01-17T01:50:01.189Z,0
2023-01-17T01:55:01.193Z,0
2023-01-17T02:00:01.191Z,0
2023-01-17T02:05:03.747Z,0
2023-01-17T02:10:01.232Z,0
2023-01-17T02:15:01.186Z,0
2023-01-17T02:20:01.187Z,0
2023-01-17T02:25:03.201Z,0
2023-01-17T02:30:01.436Z,0
2023-01-17T02:35:01.192Z,0
2023-01-17T02:40:01.192Z,0
2023-01-17T02:45:01.198Z,0
2023-01-17T02:50:01.214Z,0
2023-01-17T02:55:01.291Z,0
2023-01-17T03:00:01.257Z,0
2023-01-17T03:05:01.264Z,0
2023-01-17T03:10:01.211Z,0
2023-01-17T03:15:01.345Z,0
2023-01-17T03:20:01.300Z,0
2023-01-17T03:25:03.167Z,0
2023-01-17T03:30:01.305Z,0
2023-01-17T03:35:01.207Z,0
2023-01-17T03:40:02.232Z,0
2023-01-17T03:45:01.460Z,0
2023-01-17T03:50:01.302Z,0
2023-01-17T03:55:02.257Z,0
2023-01-17T04:00:01.214Z,0
2023-01-17T04:05:01.247Z,0
2023-01-17T04:10:02.333Z,0
2023-01-17T04:15:01.216Z,0
2023-01-17T04:20:01.191Z,0
2023-01-17T04:25:02.866Z,0
2023-01-17T04:30:01.228Z,0
2023-01-17T04:35:01.225Z,0
2023-01-17T04:40:03.172Z,0
2023-01-17T04:45:01.336Z,0
2023-01-17T04:50:01.360Z,0
2023-01-17T04:55:01.674Z,0
2023-01-17T05:00:01.211Z,0
2023-01-17T05:05:01.256Z,0
2023-01-17T05:10:01.228Z,0
2023-01-17T05:15:01.221Z,0
2023-01-17T05:20:01.257Z,0
2023-01-17T05:25:03.870Z,0
2023-01-17T05:30:01.286Z,0
2023-01-17T05:35:01.483Z,0
2023-01-17T05:40:02.072Z,0
2023-01-17T05:45:01.207Z,0
2023-01-17T05:50:01.215Z,0
2023-01-17T05:55:01.756Z,0
2023-01-17T06:00:01.214Z,0
2023-01-17T06:05:03.312Z,0
2023-01-17T06:10:01.765Z,0
2023-01-17T06:15:01.257Z,0
2023-01-17T06:20:01.240Z,0
2023-01-17T06:25:03.827Z,0
2023-01-17T06:30:01.248Z,0
2023-01-17T06:35:01.770Z,0
2023-01-17T06:40:04.973Z,0
2023-01-17T06:45:01.297Z,0
2023-01-17T06:50:01.241Z,0
2023-01-17T06:55:01.271Z,258
2023-01-17T07:00:01.334Z,260
2023-01-17T07:05:01.490Z,265
2023-01-17T07:10:01.264Z,272
2023-01-17T07:15:01.313Z,277
2023-01-17T07:20:01.734Z,283
2023-01-17T07:25:04.226Z,300
2023-01-17T07:30:01.244Z,307
2023-01-17T07:35:01.248Z,334
2023-01-17T07:40:01.473Z,385
2023-01-17T07:45:01.266Z,494
2023-01-17T07:50:01.337Z,397
2023-01-17T07:55:01.267Z,423
2023-01-17T08:00:01.308Z,449
2023-01-17T08:05:01.299Z,485
2023-01-17T08:10:01.263Z,505
2023-01-17T08:15:01.302Z,534
2023-01-17T08:20:01.276Z,556
2023-01-17T08:25:03.521Z,522
2023-01-17T08:30:01.281Z,588
2023-01-17T08:35:01.364Z,612
2023-01-17T08:40:03.335Z,640
2023-01-17T08:45:01.259Z,662
2023-01-17T08:50:01.273Z,692
2023-01-17T08:55:01.658Z,726
2023-01-17T09:00:01.445Z,3060
2023-01-17T09:05:01.266Z,2420
2023-01-17T09:10:02.013Z,11002
2023-01-17T09:15:02.879Z,12875
2023-01-17T09:20:01.258Z,11674
2023-01-17T09:25:04.787Z,5844
2023-01-17T09:30:01.750Z,1055
2023-01-17T09:35:01.418Z,751
2023-01-17T09:40:01.352Z,937
2023-01-17T09:45:01.760Z,981
2023-01-17T09:50:01.775Z,1092
2023-01-17T09:55:01.373Z,861
2023-01-17T10:00:03.711Z,808
2023-01-17T10:05:01.436Z,984
2023-01-17T10:10:01.663Z,893
2023-01-17T10:15:01.275Z,707
2023-01-17T10:20:01.303Z,630
2023-01-17T10:25:04.286Z,543
2023-01-17T10:30:01.380Z,513
2023-01-17T10:35:01.328Z,459
2023-01-17T10:40:02.135Z,546
2023-01-17T10:45:01.306Z,620
2023-01-17T10:50:01.286Z,566
2023-01-17T10:55:01.314Z,545
2023-01-17T11:00:01.327Z,726
2023-01-17T11:05:01.405Z,712
2023-01-17T11:10:01.667Z,683
2023-01-17T11:15:01.425Z,581
2023-01-17T11:20:01.412Z,501
2023-01-17T11:25:05.149Z,485
2023-01-17T11:30:01.283Z,481
2023-01-17T11:35:01.300Z,474
2023-01-17T11:40:04.762Z,467
2023-01-17T11:45:01.322Z,471
2023-01-17T11:50:01.316Z,413
2023-01-17T11:55:01.308Z,454
2023-01-17T12:00:01.326Z,460
2023-01-17T12:05:01.390Z,433
2023-01-17T12:10:01.309Z,378
2023-01-17T12:15:01.317Z,487
2023-01-17T12:20:01.523Z,614
2023-01-17T12:25:04.887Z,640
2023-01-17T12:30:01.341Z,658
2023-01-17T12:35:01.332Z,448
2023-01-17T12:40:02.155Z,1121
2023-01-17T12:45:01.348Z,703
2023-01-17T12:50:01.329Z,686
2023-01-17T12:55:02.093Z,624
2023-01-17T13:00:01.326Z,645
2023-01-17T13:05:01.312Z,673
2023-01-17T13:10:03.584Z,748
2023-01-17T13:15:01.366Z,723
2023-01-17T13:20:01.324Z,549
2023-01-17T13:25:05.091Z,502
2023-01-17T13:30:01.317Z,473
2023-01-17T13:35:01.843Z,452
2023-01-17T13:40:01.866Z,465
2023-01-17T13:45:01.456Z,461
2023-01-17T13:50:01.342Z,459
2023-01-17T13:55:01.349Z,448
2023-01-17T14:00:01.324Z,474
2023-01-17T14:05:01.352Z,476
2023-01-17T14:10:01.656Z,450
2023-01-17T14:15:01.374Z,472
2023-01-17T14:20:01.373Z,457
2023-01-17T14:25:04.215Z,453
2023-01-17T14:30:02.401Z,467
2023-01-17T14:35:01.369Z,426
2023-01-17T14:40:01.546Z,413
2023-01-17T14:45:01.379Z,414
2023-01-17T14:50:01.331Z,415
2023-01-17T14:55:01.383Z,395
2023-01-17T15:00:01.343Z,382
2023-01-17T15:05:01.340Z,358
2023-01-17T15:10:01.641Z,345
2023-01-17T15:15:01.360Z,326
2023-01-17T15:20:01.437Z,301
2023-01-17T15:25:03.690Z,288
2023-01-17T15:30:01.357Z,278
2023-01-17T15:35:01.357Z,269
2023-01-17T15:40:01.900Z,263
2023-01-17T15:45:01.339Z,262
2023-01-17T15:50:01.369Z,260
2023-01-17T15:55:04.259Z,258
2023-01-17T16:00:01.416Z,257
2023-01-17T16:05:01.422Z,0
2023-01-17T16:10:01.546Z,0
2023-01-17T16:15:12.145Z,0
2023-01-17T16:20:01.401Z,0
2023-01-17T16:25:03.559Z,0
2023-01-17T16:30:01.487Z,0
2023-01-17T16:35:01.348Z,0
2023-01-17T16:50:01.471Z,0
2023-01-17T16:55:01.355Z,0
2023-01-17T17:05:01.421Z,0
2023-01-17T17:10:01.351Z,0
2023-01-17T17:15:01.415Z,0
2023-01-17T17:20:01.365Z,0
2023-01-17T17:25:01.390Z,0
2023-01-17T17:30:01.365Z,0
2023-01-17T17:35:01.867Z,0
2023-01-17T17:40:01.393Z,0
2023-01-17T17:45:01.377Z,0
2023-01-17T17:50:01.386Z,0
2023-01-17T17:55:01.372Z,0
2023-01-17T18:00:01.363Z,0
2023-01-17T18:05:02.041Z,0
2023-01-17T18:10:01.403Z,0
2023-01-17T18:15:01.538Z,0
2023-01-17T18:20:01.447Z,0
2023-01-17T18:25:01.374Z,0
2023-01-17T18:30:01.367Z,0
2023-01-17T18:35:01.378Z,0
2023-01-17T18:40:01.487Z,0
2023-01-17T18:45:01.383Z,0
2023-01-17T18:50:01.380Z,0
2023-01-17T18:55:01.428Z,0
2023-01-17T19:00:01.442Z,0
2023-01-17T19:05:01.436Z,0
2023-01-17T19:10:01.451Z,0
2023-01-17T19:15:01.383Z,0
2023-01-17T19:20:01.376Z,0
2023-01-17T19:25:01.374Z,0
2023-01-17T19:30:01.424Z,0
2023-01-17T19:35:01.381Z,0
2023-01-17T19:40:01.399Z,0
2023-01-17T19:45:01.455Z,0
2023-01-17T19:50:01.476Z,0
2023-01-17T19:55:01.434Z,0
2023-01-17T20:00:01.458Z,0
2023-01-17T20:05:01.476Z,0
2023-01-17T20:10:01.485Z,0
2023-01-17T20:15:01.500Z,0
2023-01-17T20:20:01.448Z,0
2023-01-17T20:25:01.564Z,0
2023-01-17T20:30:11.029Z,0
2023-01-17T20:35:01.551Z,0
2023-01-17T20:40:01.505Z,0
2023-01-17T20:45:01.439Z,0
2023-01-17T20:50:02.540Z,0
2023-01-17T20:55:01.583Z,0
2023-01-17T21:00:01.527Z,0
2023-01-17T21:05:01.917Z,0
2023-01-17T21:10:01.495Z,0
2023-01-17T21:15:01.473Z,0
2023-01-17T21:20:01.481Z,0
2023-01-17T21:25:01.593Z,0
2023-01-17T21:30:01.477Z,0
2023-01-17T21:35:01.630Z,0
2023-01-17T21:40:03.053Z,0
2023-01-17T21:45:01.895Z,0
2023-01-17T21:50:01.504Z,0
2023-01-17T21:55:01.447Z,0
2023-01-17T22:00:01.500Z,0
2023-01-17T22:05:02.012Z,0
2023-01-17T22:10:01.467Z,0
2023-01-17T22:15:01.512Z,0
2023-01-17T22:20:01.498Z,0
2023-01-17T22:25:01.987Z,0
2023-01-17T22:30:01.535Z,0
2023-01-17T22:35:01.461Z,0
2023-01-17T22:40:01.471Z,0
2023-01-17T22:45:01.478Z,0
2023-01-17T22:50:01.547Z,0
2023-01-17T22:55:01.716Z,0
2023-01-17T23:00:03.505Z,0
2023-01-17T23:05:01.528Z,0
2023-01-17T23:10:01.508Z,0
2023-01-17T23:15:01.722Z,0
2023-01-17T23:20:01.467Z,0
2023-01-17T23:25:01.659Z,0
2023-01-17T23:30:02.090Z,0
2023-01-17T23:35:01.425Z,0
2023-01-17T23:40:01.497Z,0
2023-01-17T23:45:01.581Z,0
2023-01-17T23:50:01.544Z,0
2023-01-17T23:55:01.806Z,0
